sensor_id;sensor_type;location;lat;lon;timestamp;pressure;altitude;pressure_sealevel;temperature;humidity
57606;BME280;43430;48.204;11.556;2023-06-26T00:01:29;96026.47;;;17.22;100.00
57606;BME280;43430;48.204;11.556;2023-06-26T00:03:55;96027.81;;;17.24;100.00
57606;BME280;43430;48.204;11.556;2023-06-26T00:06:20;96029.13;;;17.22;100.00
57606;BME280;43430;48.204;11.556;2023-06-26T00:08:46;96021.91;;;17.12;100.00
57606;BME280;43430;48.204;11.556;2023-06-26T00:11:11;96028.78;;;17.03;100.00
57606;BME280;43430;48.204;11.556;2023-06-26T00:13:37;96028.50;;;16.94;100.00
57606;BME280;43430;48.204;11.556;2023-06-26T00:16:02;96028.75;;;16.93;100.00
57606;BME280;43430;48.204;11.556;2023-06-26T00:18:28;96021.03;;;16.91;100.00
57606;BME280;43430;48.204;11.556;2023-06-26T00:20:54;96030.09;;;16.90;100.00
57606;BME280;43430;48.204;11.556;2023-06-26T00:23:19;96033.56;;;16.91;100.00
57606;BME280;43430;48.204;11.556;2023-06-26T00:25:45;96032.50;;;16.92;100.00
57606;BME280;43430;48.204;11.556;2023-06-26T00:28:10;96032.50;;;16.92;100.00
57606;BME280;43430;48.204;11.556;2023-06-26T00:30:35;96031.97;;;16.90;100.00
57606;BME280;43430;48.204;11.556;2023-06-26T00:33:01;96042.06;;;16.88;100.00
57606;BME280;43430;48.204;11.556;2023-06-26T00:35:26;96035.66;;;16.83;100.00
57606;BME280;43430;48.204;11.556;2023-06-26T00:37:52;96036.97;;;16.76;100.00
57606;BME280;43430;48.204;11.556;2023-06-26T00:40:17;96042.59;;;16.84;100.00
57606;BME280;43430;48.204;11.556;2023-06-26T00:42:43;96036.47;;;16.89;100.00
57606;BME280;43430;48.204;11.556;2023-06-26T00:45:08;96040.25;;;16.93;100.00
57606;BME280;43430;48.204;11.556;2023-06-26T00:47:33;96032.78;;;16.95;100.00
57606;BME280;43430;48.204;11.556;2023-06-26T00:49:59;96039.41;;;16.93;100.00
57606;BME280;43430;48.204;11.556;2023-06-26T00:52:25;96035.94;;;16.87;100.00
57606;BME280;43430;48.204;11.556;2023-06-26T00:54:50;96041.72;;;16.74;100.00
57606;BME280;43430;48.204;11.556;2023-06-26T00:57:17;96045.09;;;16.59;100.00
57606;BME280;43430;48.204;11.556;2023-06-26T00:59:42;96049.59;;;16.58;100.00
57606;BME280;43430;48.204;11.556;2023-06-26T01:02:08;96049.56;;;16.53;100.00
57606;BME280;43430;48.204;11.556;2023-06-26T01:04:35;96047.41;;;16.45;100.00
57606;BME280;43430;48.204;11.556;2023-06-26T01:07:01;96043.41;;;16.48;100.00
57606;BME280;43430;48.204;11.556;2023-06-26T01:09:28;96047.41;;;16.45;100.00
57606;BME280;43430;48.204;11.556;2023-06-26T01:11:54;96048.66;;;16.37;100.00
57606;BME280;43430;48.204;11.556;2023-06-26T01:14:20;96050.25;;;16.33;100.00
57606;BME280;43430;48.204;11.556;2023-06-26T01:16:46;96044.41;;;16.31;100.00
57606;BME280;43430;48.204;11.556;2023-06-26T01:19:29;96051.03;;;16.29;100.00
57606;BME280;43430;48.204;11.556;2023-06-26T01:22:00;96046.34;;;16.09;100.00
57606;BME280;43430;48.204;11.556;2023-06-26T01:24:33;96038.63;;;16.07;100.00
57606;BME280;43430;48.204;11.556;2023-06-26T01:27:03;96048.44;;;16.07;100.00
57606;BME280;43430;48.204;11.556;2023-06-26T01:29:30;96052.16;;;16.06;100.00
57606;BME280;43430;48.204;11.556;2023-06-26T01:31:57;96049.28;;;16.07;100.00
57606;BME280;43430;48.204;11.556;2023-06-26T01:34:22;96042.88;;;16.08;100.00
57606;BME280;43430;48.204;11.556;2023-06-26T01:36:48;96051.94;;;16.07;100.00
57606;BME280;43430;48.204;11.556;2023-06-26T01:39:18;96048.41;;;16.02;100.00
57606;BME280;43430;48.204;11.556;2023-06-26T01:41:44;96047.84;;;15.95;100.00
57606;BME280;43430;48.204;11.556;2023-06-26T01:44:23;96049.19;;;15.97;100.00
57606;BME280;43430;48.204;11.556;2023-06-26T01:47:02;96054.00;;;16.00;100.00
57606;BME280;43430;48.204;11.556;2023-06-26T01:49:43;96041.75;;;15.99;100.00
57606;BME280;43430;48.204;11.556;2023-06-26T01:52:19;96044.91;;;15.96;100.00
57606;BME280;43430;48.204;11.556;2023-06-26T01:57:34;96043.81;;;15.92;100.00
57606;BME280;43430;48.204;11.556;2023-06-26T02:00:02;96039.66;;;16.01;100.00
57606;BME280;43430;48.204;11.556;2023-06-26T02:02:28;96041.25;;;16.02;100.00
57606;BME280;43430;48.204;11.556;2023-06-26T02:04:54;96042.72;;;15.88;100.00
57606;BME280;43430;48.204;11.556;2023-06-26T02:07:19;96036.03;;;15.80;100.00
57606;BME280;43430;48.204;11.556;2023-06-26T02:09:45;96043.69;;;15.77;100.00
57606;BME280;43430;48.204;11.556;2023-06-26T02:12:10;96043.44;;;15.78;100.00
57606;BME280;43430;48.204;11.556;2023-06-26T02:14:35;96044.19;;;15.74;100.00
57606;BME280;43430;48.204;11.556;2023-06-26T02:17:02;96046.56;;;15.70;100.00
57606;BME280;43430;48.204;11.556;2023-06-26T02:19:27;96046.56;;;15.70;100.00
57606;BME280;43430;48.204;11.556;2023-06-26T02:21:53;96047.88;;;15.68;100.00
57606;BME280;43430;48.204;11.556;2023-06-26T02:24:19;96050.19;;;15.64;100.00
57606;BME280;43430;48.204;11.556;2023-06-26T02:26:44;96053.63;;;15.59;100.00
57606;BME280;43430;48.204;11.556;2023-06-26T02:29:11;96051.66;;;15.50;100.00
57606;BME280;43430;48.204;11.556;2023-06-26T02:31:36;96060.91;;;15.47;100.00
57606;BME280;43430;48.204;11.556;2023-06-26T02:34:02;96055.41;;;15.54;100.00
57606;BME280;43430;48.204;11.556;2023-06-26T02:36:27;96054.13;;;15.56;100.00
57606;BME280;43430;48.204;11.556;2023-06-26T02:38:52;96056.81;;;15.61;100.00
57606;BME280;43430;48.204;11.556;2023-06-26T02:41:18;96047.69;;;15.52;100.00
57606;BME280;43430;48.204;11.556;2023-06-26T02:43:43;96049.78;;;15.50;100.00
57606;BME280;43430;48.204;11.556;2023-06-26T02:46:08;96053.00;;;15.52;100.00
57606;BME280;43430;48.204;11.556;2023-06-26T02:48:34;96052.19;;;15.52;100.00
57606;BME280;43430;48.204;11.556;2023-06-26T02:50:59;96059.25;;;15.41;100.00
57606;BME280;43430;48.204;11.556;2023-06-26T02:53:24;96059.81;;;15.43;100.00
57606;BME280;43430;48.204;11.556;2023-06-26T02:55:50;96062.22;;;15.44;100.00
57606;BME280;43430;48.204;11.556;2023-06-26T02:58:15;96059.56;;;15.44;100.00
57606;BME280;43430;48.204;11.556;2023-06-26T03:00:40;96056.41;;;15.48;100.00
57606;BME280;43430;48.204;11.556;2023-06-26T03:03:06;96050.28;;;15.47;100.00
57606;BME280;43430;48.204;11.556;2023-06-26T03:05:32;96049.19;;;15.43;100.00
57606;BME280;43430;48.204;11.556;2023-06-26T03:07:57;96057.81;;;15.28;100.00
57606;BME280;43430;48.204;11.556;2023-06-26T03:10:22;96058.22;;;15.20;100.00
57606;BME280;43430;48.204;11.556;2023-06-26T03:12:48;96057.69;;;15.18;100.00
57606;BME280;43430;48.204;11.556;2023-06-26T03:15:13;96053.97;;;15.19;100.00
57606;BME280;43430;48.204;11.556;2023-06-26T03:17:39;96053.78;;;15.26;100.00
57606;BME280;43430;48.204;11.556;2023-06-26T03:20:05;96059.56;;;15.17;100.00
57606;BME280;43430;48.204;11.556;2023-06-26T03:22:32;96057.09;;;15.11;100.00
57606;BME280;43430;48.204;11.556;2023-06-26T03:24:58;96059.44;;;15.07;100.00
57606;BME280;43430;48.204;11.556;2023-06-26T03:27:23;96055.47;;;15.10;100.00
57606;BME280;43430;48.204;11.556;2023-06-26T03:29:48;96055.53;;;15.15;100.00
57606;BME280;43430;48.204;11.556;2023-06-26T03:32:14;96052.09;;;15.14;100.00
57606;BME280;43430;48.204;11.556;2023-06-26T03:34:39;96054.28;;;15.23;100.00
57606;BME280;43430;48.204;11.556;2023-06-26T03:37:05;96050.06;;;15.27;100.00
57606;BME280;43430;48.204;11.556;2023-06-26T03:39:30;96060.41;;;15.23;100.00
57606;BME280;43430;48.204;11.556;2023-06-26T03:41:55;96052.19;;;15.25;100.00
57606;BME280;43430;48.204;11.556;2023-06-26T03:44:25;96052.50;;;15.28;100.00
57606;BME280;43430;48.204;11.556;2023-06-26T03:46:50;96047.59;;;15.42;100.00
57606;BME280;43430;48.204;11.556;2023-06-26T03:49:16;96046.06;;;15.51;100.00
57606;BME280;43430;48.204;11.556;2023-06-26T03:51:41;96052.00;;;15.58;100.00
57606;BME280;43430;48.204;11.556;2023-06-26T03:54:07;96047.28;;;15.65;100.00
57606;BME280;43430;48.204;11.556;2023-06-26T03:56:32;96046.81;;;15.69;100.00
57606;BME280;43430;48.204;11.556;2023-06-26T03:58:57;96048.59;;;15.63;100.00
57606;BME280;43430;48.204;11.556;2023-06-26T04:01:23;96048.84;;;15.61;100.00
57606;BME280;43430;48.204;11.556;2023-06-26T04:03:48;96053.66;;;15.64;100.00
57606;BME280;43430;48.204;11.556;2023-06-26T04:06:14;96050.59;;;15.73;100.00
57606;BME280;43430;48.204;11.556;2023-06-26T04:08:39;96046.09;;;15.78;100.00
57606;BME280;43430;48.204;11.556;2023-06-26T04:11:04;96044.88;;;15.91;100.00
57606;BME280;43430;48.204;11.556;2023-06-26T04:13:30;96045.63;;;16.19;100.00
57606;BME280;43430;48.204;11.556;2023-06-26T04:15:55;96041.53;;;16.43;100.00
57606;BME280;43430;48.204;11.556;2023-06-26T04:18:20;96037.84;;;16.49;100.00
57606;BME280;43430;48.204;11.556;2023-06-26T04:21:06;96027.16;;;16.87;100.00
57606;BME280;43430;48.204;11.556;2023-06-26T04:23:32;96031.81;;;17.22;100.00
57606;BME280;43430;48.204;11.556;2023-06-26T04:25:58;96026.75;;;17.30;100.00
57606;BME280;43430;48.204;11.556;2023-06-26T04:28:24;96021.19;;;17.47;100.00
57606;BME280;43430;48.204;11.556;2023-06-26T04:30:49;96034.56;;;17.63;100.00
57606;BME280;43430;48.204;11.556;2023-06-26T04:33:15;96018.88;;;18.02;100.00
57606;BME280;43430;48.204;11.556;2023-06-26T04:35:40;96017.50;;;18.45;100.00
57606;BME280;43430;48.204;11.556;2023-06-26T04:38:06;96010.78;;;18.53;100.00
57606;BME280;43430;48.204;11.556;2023-06-26T04:40:31;96015.81;;;18.70;100.00
57606;BME280;43430;48.204;11.556;2023-06-26T04:42:56;95999.19;;;18.93;100.00
57606;BME280;43430;48.204;11.556;2023-06-26T04:45:22;95998.13;;;18.94;100.00
57606;BME280;43430;48.204;11.556;2023-06-26T04:47:47;96006.13;;;18.94;100.00
57606;BME280;43430;48.204;11.556;2023-06-26T04:50:12;95996.94;;;19.16;100.00
57606;BME280;43430;48.204;11.556;2023-06-26T04:52:38;95995.19;;;19.40;100.00
57606;BME280;43430;48.204;11.556;2023-06-26T04:55:03;95991.88;;;19.64;100.00
57606;BME280;43430;48.204;11.556;2023-06-26T04:57:29;95990.97;;;19.79;100.00
57606;BME280;43430;48.204;11.556;2023-06-26T04:59:54;95984.41;;;19.95;100.00
57606;BME280;43430;48.204;11.556;2023-06-26T05:02:20;95985.25;;;20.20;100.00
57606;BME280;43430;48.204;11.556;2023-06-26T05:04:45;95991.03;;;20.32;100.00
57606;BME280;43430;48.204;11.556;2023-06-26T05:07:12;95986.59;;;20.75;100.00
57606;BME280;43430;48.204;11.556;2023-06-26T05:09:37;95986.22;;;21.06;100.00
57606;BME280;43430;48.204;11.556;2023-06-26T05:12:03;95983.00;;;21.04;100.00
57606;BME280;43430;48.204;11.556;2023-06-26T05:14:28;95989.28;;;20.94;100.00
57606;BME280;43430;48.204;11.556;2023-06-26T05:16:54;95988.22;;;21.33;100.00
57606;BME280;43430;48.204;11.556;2023-06-26T05:19:19;95991.09;;;21.61;100.00
57606;BME280;43430;48.204;11.556;2023-06-26T05:21:45;95986.81;;;21.78;100.00
57606;BME280;43430;48.204;11.556;2023-06-26T05:24:12;95977.31;;;22.00;100.00
57606;BME280;43430;48.204;11.556;2023-06-26T05:26:38;95990.28;;;22.12;100.00
57606;BME280;43430;48.204;11.556;2023-06-26T05:29:04;95985.63;;;21.85;100.00
57606;BME280;43430;48.204;11.556;2023-06-26T05:31:32;95984.75;;;22.22;100.00
57606;BME280;43430;48.204;11.556;2023-06-26T05:34:02;95983.81;;;22.45;99.18
57606;BME280;43430;48.204;11.556;2023-06-26T05:36:29;95981.31;;;22.77;95.52
57606;BME280;43430;48.204;11.556;2023-06-26T05:38:58;95972.25;;;23.14;94.02
57606;BME280;43430;48.204;11.556;2023-06-26T05:41:24;95973.63;;;23.25;91.94
57606;BME280;43430;48.204;11.556;2023-06-26T05:43:49;95979.25;;;23.01;94.92
57606;BME280;43430;48.204;11.556;2023-06-26T05:46:15;95987.00;;;22.47;97.74
57606;BME280;43430;48.204;11.556;2023-06-26T05:48:40;95980.75;;;22.19;98.92
57606;BME280;43430;48.204;11.556;2023-06-26T05:51:06;95983.44;;;21.87;98.97
57606;BME280;43430;48.204;11.556;2023-06-26T05:53:32;95990.72;;;21.67;100.00
57606;BME280;43430;48.204;11.556;2023-06-26T05:55:57;95985.34;;;21.67;100.00
57606;BME280;43430;48.204;11.556;2023-06-26T05:58:28;95987.03;;;21.63;100.00
57606;BME280;43430;48.204;11.556;2023-06-26T06:00:53;95993.22;;;21.45;100.00
57606;BME280;43430;48.204;11.556;2023-06-26T06:03:18;95994.38;;;21.39;100.00
57606;BME280;43430;48.204;11.556;2023-06-26T06:05:44;95986.09;;;21.54;100.00
57606;BME280;43430;48.204;11.556;2023-06-26T06:08:09;95985.06;;;21.50;100.00
57606;BME280;43430;48.204;11.556;2023-06-26T06:10:35;95977.91;;;21.45;100.00
57606;BME280;43430;48.204;11.556;2023-06-26T06:13:00;95972.75;;;21.49;100.00
57606;BME280;43430;48.204;11.556;2023-06-26T06:15:25;95974.94;;;21.47;100.00
57606;BME280;43430;48.204;11.556;2023-06-26T06:17:51;95985.16;;;21.45;100.00
57606;BME280;43430;48.204;11.556;2023-06-26T06:20:17;95987.63;;;21.41;100.00
57606;BME280;43430;48.204;11.556;2023-06-26T06:22:44;95981.53;;;21.54;100.00
57606;BME280;43430;48.204;11.556;2023-06-26T06:25:10;95974.97;;;21.61;100.00
57606;BME280;43430;48.204;11.556;2023-06-26T06:27:35;95979.50;;;21.65;100.00
57606;BME280;43430;48.204;11.556;2023-06-26T06:30:00;95978.81;;;21.73;100.00
57606;BME280;43430;48.204;11.556;2023-06-26T06:32:26;95974.75;;;21.76;100.00
57606;BME280;43430;48.204;11.556;2023-06-26T06:34:51;95976.66;;;21.75;100.00
57606;BME280;43430;48.204;11.556;2023-06-26T06:37:16;95979.25;;;21.80;100.00
57606;BME280;43430;48.204;11.556;2023-06-26T06:39:42;95979.59;;;21.93;100.00
57606;BME280;43430;48.204;11.556;2023-06-26T06:42:07;95975.66;;;22.04;100.00
57606;BME280;43430;48.204;11.556;2023-06-26T06:44:33;95983.97;;;22.21;100.00
57606;BME280;43430;48.204;11.556;2023-06-26T06:46:58;95984.31;;;22.34;100.00
57606;BME280;43430;48.204;11.556;2023-06-26T06:49:24;95978.75;;;22.44;100.00
57606;BME280;43430;48.204;11.556;2023-06-26T06:51:49;95981.44;;;22.44;100.00
57606;BME280;43430;48.204;11.556;2023-06-26T06:54:16;95972.34;;;22.54;100.00
57606;BME280;43430;48.204;11.556;2023-06-26T06:56:42;95981.84;;;22.65;100.00
57606;BME280;43430;48.204;11.556;2023-06-26T06:59:07;95981.03;;;22.64;93.75
57606;BME280;43430;48.204;11.556;2023-06-26T07:01:32;95972.97;;;22.78;93.98
57606;BME280;43430;48.204;11.556;2023-06-26T07:03:58;95977.25;;;22.79;95.73
57606;BME280;43430;48.204;11.556;2023-06-26T07:06:23;95975.25;;;22.85;97.16
57606;BME280;43430;48.204;11.556;2023-06-26T07:08:49;95981.25;;;22.95;95.81
57606;BME280;43430;48.204;11.556;2023-06-26T07:11:15;95966.78;;;23.05;96.62
57606;BME280;43430;48.204;11.556;2023-06-26T07:13:40;95967.78;;;23.23;95.74
57606;BME280;43430;48.204;11.556;2023-06-26T07:16:05;95965.94;;;23.32;94.89
57606;BME280;43430;48.204;11.556;2023-06-26T07:18:31;95968.22;;;23.39;95.02
57606;BME280;43430;48.204;11.556;2023-06-26T07:20:56;95971.47;;;23.50;88.67
57606;BME280;43430;48.204;11.556;2023-06-26T07:23:21;95967.59;;;23.42;91.05
57606;BME280;43430;48.204;11.556;2023-06-26T07:25:47;95973.59;;;23.39;92.35
57606;BME280;43430;48.204;11.556;2023-06-26T07:28:12;95971.78;;;23.48;92.73
57606;BME280;43430;48.204;11.556;2023-06-26T07:30:38;95969.56;;;23.50;94.87
57606;BME280;43430;48.204;11.556;2023-06-26T07:33:03;95969.50;;;23.64;92.35
57606;BME280;43430;48.204;11.556;2023-06-26T07:35:29;95963.66;;;23.62;94.18
57606;BME280;43430;48.204;11.556;2023-06-26T07:37:54;95963.63;;;23.76;95.59
57606;BME280;43430;48.204;11.556;2023-06-26T07:40:20;95966.06;;;23.86;95.57
57606;BME280;43430;48.204;11.556;2023-06-26T07:42:45;95963.03;;;23.79;94.70
57606;BME280;43430;48.204;11.556;2023-06-26T07:45:11;95964.16;;;23.86;95.23
57606;BME280;43430;48.204;11.556;2023-06-26T07:47:37;95967.66;;;23.87;92.52
57606;BME280;43430;48.204;11.556;2023-06-26T07:50:03;95972.97;;;24.01;92.91
57606;BME280;43430;48.204;11.556;2023-06-26T07:52:29;95970.16;;;24.06;93.94
57606;BME280;43430;48.204;11.556;2023-06-26T07:54:55;95967.16;;;24.07;92.06
57606;BME280;43430;48.204;11.556;2023-06-26T07:57:21;95962.13;;;24.14;93.56
57606;BME280;43430;48.204;11.556;2023-06-26T07:59:46;95967.34;;;24.11;92.88
57606;BME280;43430;48.204;11.556;2023-06-26T08:02:12;95966.09;;;24.17;91.15
57606;BME280;43430;48.204;11.556;2023-06-26T08:04:37;95969.09;;;24.15;93.31
57606;BME280;43430;48.204;11.556;2023-06-26T08:07:03;95967.91;;;24.30;92.12
57606;BME280;43430;48.204;11.556;2023-06-26T08:09:31;95962.22;;;24.32;93.40
57606;BME280;43430;48.204;11.556;2023-06-26T08:11:57;95963.81;;;24.33;92.50
57606;BME280;43430;48.204;11.556;2023-06-26T08:14:23;95958.81;;;24.40;93.53
57606;BME280;43430;48.204;11.556;2023-06-26T08:16:49;95951.38;;;24.46;93.34
57606;BME280;43430;48.204;11.556;2023-06-26T08:19:16;95947.94;;;24.62;93.04
57606;BME280;43430;48.204;11.556;2023-06-26T08:21:44;95955.44;;;24.74;95.47
57606;BME280;43430;48.204;11.556;2023-06-26T08:24:10;95947.06;;;24.84;93.45
57606;BME280;43430;48.204;11.556;2023-06-26T08:26:36;95950.44;;;24.99;91.26
57606;BME280;43430;48.204;11.556;2023-06-26T08:29:02;95951.56;;;25.06;92.65
57606;BME280;43430;48.204;11.556;2023-06-26T08:31:36;95945.34;;;24.97;92.28
57606;BME280;43430;48.204;11.556;2023-06-26T08:34:04;95946.28;;;25.01;92.43
57606;BME280;43430;48.204;11.556;2023-06-26T08:36:30;95946.63;;;25.08;90.61
57606;BME280;43430;48.204;11.556;2023-06-26T08:38:56;95944.78;;;25.26;93.06
57606;BME280;43430;48.204;11.556;2023-06-26T08:41:22;95953.38;;;25.37;87.31
57606;BME280;43430;48.204;11.556;2023-06-26T08:43:47;95947.03;;;25.50;88.14
57606;BME280;43430;48.204;11.556;2023-06-26T08:46:14;95949.38;;;25.69;85.43
57606;BME280;43430;48.204;11.556;2023-06-26T08:48:41;95945.41;;;25.67;85.53
57606;BME280;43430;48.204;11.556;2023-06-26T08:51:12;95937.63;;;25.83;86.89
57606;BME280;43430;48.204;11.556;2023-06-26T08:53:44;95941.78;;;25.80;82.74
57606;BME280;43430;48.204;11.556;2023-06-26T08:56:17;95938.88;;;25.94;84.76
57606;BME280;43430;48.204;11.556;2023-06-26T08:58:44;95943.66;;;26.06;80.05
57606;BME280;43430;48.204;11.556;2023-06-26T09:01:09;95937.59;;;26.09;81.30
57606;BME280;43430;48.204;11.556;2023-06-26T09:03:36;95930.09;;;26.14;78.50
57606;BME280;43430;48.204;11.556;2023-06-26T09:06:01;95926.59;;;26.14;76.25
57606;BME280;43430;48.204;11.556;2023-06-26T09:08:27;95929.16;;;26.19;79.59
57606;BME280;43430;48.204;11.556;2023-06-26T09:10:52;95922.56;;;26.37;73.18
57606;BME280;43430;48.204;11.556;2023-06-26T09:13:18;95923.31;;;26.46;73.53
57606;BME280;43430;48.204;11.556;2023-06-26T09:15:44;95927.44;;;26.52;75.24
57606;BME280;43430;48.204;11.556;2023-06-26T09:18:10;95913.41;;;26.59;78.43
57606;BME280;43430;48.204;11.556;2023-06-26T09:20:36;95918.97;;;26.63;76.84
57606;BME280;43430;48.204;11.556;2023-06-26T09:23:01;95911.13;;;26.70;74.15
57606;BME280;43430;48.204;11.556;2023-06-26T09:25:28;95913.94;;;26.82;72.65
57606;BME280;43430;48.204;11.556;2023-06-26T09:27:54;95915.84;;;26.82;72.55
57606;BME280;43430;48.204;11.556;2023-06-26T09:30:20;95913.72;;;26.87;67.96
57606;BME280;43430;48.204;11.556;2023-06-26T09:32:45;95905.91;;;26.94;59.49
57606;BME280;43430;48.204;11.556;2023-06-26T09:35:11;95908.13;;;26.92;60.91
57606;BME280;43430;48.204;11.556;2023-06-26T09:37:37;95896.81;;;26.99;60.33
57606;BME280;43430;48.204;11.556;2023-06-26T09:40:03;95902.94;;;27.08;62.08
57606;BME280;43430;48.204;11.556;2023-06-26T09:42:30;95899.00;;;27.27;65.45
57606;BME280;43430;48.204;11.556;2023-06-26T09:44:55;95908.19;;;27.34;60.91
57606;BME280;43430;48.204;11.556;2023-06-26T09:47:21;95905.47;;;27.34;63.26
57606;BME280;43430;48.204;11.556;2023-06-26T09:49:47;95893.50;;;27.35;62.31
57606;BME280;43430;48.204;11.556;2023-06-26T09:52:17;95889.69;;;27.57;62.72
57606;BME280;43430;48.204;11.556;2023-06-26T09:54:43;95884.66;;;27.47;52.71
57606;BME280;43430;48.204;11.556;2023-06-26T09:57:13;95876.41;;;27.43;51.83
57606;BME280;43430;48.204;11.556;2023-06-26T09:59:40;95879.63;;;27.58;51.00
57606;BME280;43430;48.204;11.556;2023-06-26T10:02:06;95877.38;;;27.60;48.30
57606;BME280;43430;48.204;11.556;2023-06-26T10:04:32;95884.06;;;27.41;52.34
57606;BME280;43430;48.204;11.556;2023-06-26T10:06:58;95879.25;;;27.80;49.56
57606;BME280;43430;48.204;11.556;2023-06-26T10:09:26;95872.19;;;28.00;48.24
57606;BME280;43430;48.204;11.556;2023-06-26T10:11:57;95883.44;;;27.78;47.31
57606;BME280;43430;48.204;11.556;2023-06-26T10:14:27;95873.84;;;27.80;49.95
57606;BME280;43430;48.204;11.556;2023-06-26T10:16:57;95882.25;;;27.87;48.13
57606;BME280;43430;48.204;11.556;2023-06-26T10:19:24;95873.41;;;27.90;48.32
57606;BME280;43430;48.204;11.556;2023-06-26T10:21:53;95866.38;;;28.23;47.19
57606;BME280;43430;48.204;11.556;2023-06-26T10:24:19;95871.91;;;28.26;47.24
57606;BME280;43430;48.204;11.556;2023-06-26T10:26:49;95880.81;;;28.02;48.60
57606;BME280;43430;48.204;11.556;2023-06-26T10:29:16;95876.97;;;28.15;46.49
57606;BME280;43430;48.204;11.556;2023-06-26T10:31:44;95868.97;;;28.31;45.94
57606;BME280;43430;48.204;11.556;2023-06-26T10:34:11;95865.94;;;28.57;45.74
57606;BME280;43430;48.204;11.556;2023-06-26T10:36:37;95853.69;;;28.88;45.74
57606;BME280;43430;48.204;11.556;2023-06-26T10:39:06;95858.56;;;28.95;46.65
57606;BME280;43430;48.204;11.556;2023-06-26T10:41:39;95855.41;;;29.05;45.26
57606;BME280;43430;48.204;11.556;2023-06-26T10:44:11;95864.56;;;28.88;40.87
57606;BME280;43430;48.204;11.556;2023-06-26T10:46:53;95861.09;;;28.51;40.29
57606;BME280;43430;48.204;11.556;2023-06-26T10:49:20;95860.75;;;28.65;40.56
57606;BME280;43430;48.204;11.556;2023-06-26T10:51:50;95861.41;;;28.74;41.29
57606;BME280;43430;48.204;11.556;2023-06-26T10:54:19;95858.25;;;28.72;42.40
57606;BME280;43430;48.204;11.556;2023-06-26T10:56:49;95845.69;;;28.79;43.53
57606;BME280;43430;48.204;11.556;2023-06-26T10:59:22;95848.91;;;29.22;42.23
57606;BME280;43430;48.204;11.556;2023-06-26T11:02:04;95853.09;;;29.19;41.91
57606;BME280;43430;48.204;11.556;2023-06-26T11:04:40;95846.56;;;29.08;40.76
57606;BME280;43430;48.204;11.556;2023-06-26T11:07:19;95844.88;;;28.91;41.52
57606;BME280;43430;48.204;11.556;2023-06-26T11:12:58;95850.78;;;28.69;42.99
57606;BME280;43430;48.204;11.556;2023-06-26T11:15:26;95851.44;;;29.02;44.42
57606;BME280;43430;48.204;11.556;2023-06-26T11:17:53;95851.75;;;29.41;42.02
57606;BME280;43430;48.204;11.556;2023-06-26T11:20:18;95850.50;;;29.39;41.60
57606;BME280;43430;48.204;11.556;2023-06-26T11:22:44;95847.78;;;29.10;41.82
57606;BME280;43430;48.204;11.556;2023-06-26T11:25:10;95848.16;;;28.84;42.94
57606;BME280;43430;48.204;11.556;2023-06-26T11:27:43;95849.53;;;28.78;43.84
57606;BME280;43430;48.204;11.556;2023-06-26T11:30:10;95850.78;;;28.81;44.00
57606;BME280;43430;48.204;11.556;2023-06-26T11:32:37;95835.34;;;28.97;44.75
57606;BME280;43430;48.204;11.556;2023-06-26T11:35:03;95831.59;;;29.14;43.40
57606;BME280;43430;48.204;11.556;2023-06-26T11:37:30;95848.28;;;29.28;44.73
57606;BME280;43430;48.204;11.556;2023-06-26T11:39:55;95852.78;;;29.37;46.65
57606;BME280;43430;48.204;11.556;2023-06-26T11:42:21;95850.00;;;29.21;46.06
57606;BME280;43430;48.204;11.556;2023-06-26T11:44:47;95841.97;;;29.24;46.63
57606;BME280;43430;48.204;11.556;2023-06-26T11:47:17;95836.66;;;29.56;43.61
57606;BME280;43430;48.204;11.556;2023-06-26T11:49:44;95841.16;;;29.64;42.28
57606;BME280;43430;48.204;11.556;2023-06-26T11:52:10;95832.31;;;29.83;39.77
57606;BME280;43430;48.204;11.556;2023-06-26T11:54:35;95840.66;;;29.90;37.76
57606;BME280;43430;48.204;11.556;2023-06-26T11:57:01;95838.47;;;29.96;40.38
57606;BME280;43430;48.204;11.556;2023-06-26T11:59:37;95836.25;;;29.70;41.44
57606;BME280;43430;48.204;11.556;2023-06-26T12:02:13;95832.59;;;29.78;41.43
57606;BME280;43430;48.204;11.556;2023-06-26T12:04:41;95829.44;;;29.92;41.28
57606;BME280;43430;48.204;11.556;2023-06-26T12:07:08;95825.03;;;29.71;40.35
57606;BME280;43430;48.204;11.556;2023-06-26T12:09:42;95828.72;;;29.63;41.20
57606;BME280;43430;48.204;11.556;2023-06-26T12:12:10;95826.97;;;29.87;40.58
57606;BME280;43430;48.204;11.556;2023-06-26T12:14:36;95830.16;;;30.04;39.14
57606;BME280;43430;48.204;11.556;2023-06-26T12:17:08;95828.00;;;29.66;42.51
57606;BME280;43430;48.204;11.556;2023-06-26T12:19:37;95832.31;;;29.55;41.09
57606;BME280;43430;48.204;11.556;2023-06-26T12:22:06;95833.69;;;29.61;42.84
57606;BME280;43430;48.204;11.556;2023-06-26T12:24:32;95824.16;;;29.67;42.40
57606;BME280;43430;48.204;11.556;2023-06-26T12:26:57;95841.88;;;29.77;39.62
57606;BME280;43430;48.204;11.556;2023-06-26T12:29:31;95824.44;;;29.94;40.72
57606;BME280;43430;48.204;11.556;2023-06-26T12:31:57;95831.63;;;29.86;40.36
57606;BME280;43430;48.204;11.556;2023-06-26T12:34:28;95823.63;;;29.93;41.17
57606;BME280;43430;48.204;11.556;2023-06-26T12:37:00;95828.41;;;30.12;40.65
57606;BME280;43430;48.204;11.556;2023-06-26T12:39:25;95824.44;;;29.94;40.20
57606;BME280;43430;48.204;11.556;2023-06-26T12:41:54;95820.16;;;30.09;40.63
57606;BME280;43430;48.204;11.556;2023-06-26T12:44:28;95817.44;;;30.09;40.41
57606;BME280;43430;48.204;11.556;2023-06-26T12:47:01;95826.81;;;30.11;40.34
57606;BME280;43430;48.204;11.556;2023-06-26T12:49:30;95832.06;;;30.04;39.22